Commit Graph

  • e23451ed20 krita, gimp: refresh page (#8011) Emily Grace Seville 2022-05-16 22:38:04 +10:00
  • cf51bfd7b8 flameshot: refresh page (#8022) Emily Grace Seville 2022-05-16 22:35:38 +10:00
  • fb4ab2c11e btrbk: add page (#7991) Martin Matous 2022-05-16 14:32:21 +02:00
  • 6e60a5fd2d cpupower: add page (#8073) toydotgame 2022-05-16 22:29:57 +10:00
  • 9659a81dc3 vboxmanage: fix typo in example (#8070) gitmpr 2022-05-16 10:16:38 +02:00
  • bc8eae779f conntrack: add page (#8081) Adrien Thebo 2022-05-14 00:06:22 -07:00
  • 74f72f6d82 lsns: add page (#8078) Adrien Thebo 2022-05-13 20:22:22 -07:00
  • e92c24d49d tac: refresh page (#8057) Emily Grace Seville 2022-05-14 04:29:53 +10:00
  • 69434ed5e8 Add an example for grep with color output (#8087) Abreto Fu 2022-05-14 02:26:00 +08:00
  • 791abd7b78 rpm: use long arguments format (#8086) Martin Matous 2022-05-12 17:32:12 +02:00
  • 7c6206b74f wipeclean: add page (#8075) marchersimon 2022-05-11 17:22:06 +02:00
  • 17f090ba91 reptyr: fix command name : reptyr instead of reptry (#7978) Raizo62 2022-05-09 23:54:39 +02:00
  • 380047459f grep, kill, lsof, pkill: add Korean translation (#8061) Choi Young-jin 2022-05-09 09:41:19 +09:00
  • 39afceec30 nsenter: add --all example and refresh (#8003) Julia Evans 2022-05-08 17:26:45 -04:00
  • 7698f52edf efibootmgr: add clarity (#8079) CleanMachine1 2022-05-08 21:22:34 +00:00
  • c125fd3a96 aa: add page (#8083) pixel 2022-05-08 14:49:48 +02:00
  • c2a5c86033 *: fix spelling mistakes (#8072) CleanMachine1 2022-05-04 17:12:15 +00:00
  • 2eefbce0c1 kdialog: add page (#8071) marchersimon 2022-05-03 23:09:25 +02:00
  • 991f974b9e mate-calc: add page (#8013) Emily Grace Seville 2022-05-02 21:00:37 +10:00
  • 6ed9681dbc gh*, glab*: standardize documentation (#7957) Reinhart Previano Koentjoro 2022-05-02 17:55:38 +07:00
  • e897720058 ci.yml, stale.yml: update runtime to node16 (#8068) Axel Navarro 2022-05-01 04:50:24 -03:00
  • b08a8f2e8c ISSUE_TEMPLATE: add templates (#7743) Emily Grace Seville 2022-05-01 04:11:52 +10:00
  • 918891f311 perl: improve matching pattern example, arg consistency, etc. (#8043) Shawn Allen 2022-04-30 00:09:53 -07:00
  • 61805c1a25 jq: remove filename dangling quote (#8063) Erik Bartels 2022-04-30 09:07:02 +02:00
  • 07612ed011 MAINTAINERS: add @EmilySeville7cfg to org (#8062) Emily Grace Seville 2022-04-29 10:54:56 +10:00
  • 3c31514691 dumpcap: add page (#8042) Alex Treichler 2022-04-26 15:23:37 -07:00
  • 46e065db13 rich: add page (#8044) Niklas 2022-04-26 13:49:45 -04:00
  • e759816928 pluma: add page (#8010) Emily Grace Seville 2022-04-26 20:44:34 +10:00
  • 7abb9d313d pw-cli: add page (#8029) Martin Matous 2022-04-25 18:23:49 +02:00
  • 1f99d907dc Fixed spelling error (#8051) Gavi Sobell 2022-04-25 12:21:44 -04:00
  • 36d481fa58 elvish: refresh (#7989) Emily Grace Seville 2022-04-25 07:07:47 +10:00
  • beff71015a drawing: add page (#8023) Emily Grace Seville 2022-04-25 06:52:45 +10:00
  • df45659cd5 rkhunter: add page (#8047) CleanMachine1 2022-04-24 20:51:39 +00:00
  • 381293d79f git-show-unmerged-branches: add page (#8049) CleanMachine1 2022-04-24 20:50:15 +00:00
  • 47576728c8 git-show-merged-branches: add page (#8048) CleanMachine1 2022-04-24 20:49:45 +00:00
  • f47c135e7e mate-about: add page (#8020) Emily Grace Seville 2022-04-25 06:48:55 +10:00
  • ffb0d53765 nix: fix deprecated optimise-store example (#8050) Mathis Chenuet 2022-04-24 22:48:12 +02:00
  • 80da0d8c96 backlight_control: add page (#8041) Tom 2022-04-24 11:58:55 +00:00
  • 3ed1a673c0 wondershaper: add page (#8034) Ilya Pantsyr 2022-04-24 11:00:17 +03:00
  • 013c2fc194 pihole: update more information link (#8045) Iksas 2022-04-24 09:44:17 +02:00
  • 5515e8daac vcgencmd: update more information link (#8038) Iksas 2022-04-22 13:06:49 +02:00
  • 263bc24e11 git, git-abort, git-add, git-alias, git-cherry-pick, git-clone: add Korean translation (#8035) Choi Young-jin 2022-04-20 16:40:24 +09:00
  • 87781641f6 dog, dokku: add Ukrainian translation (#8036) Ilya Pantsyr 2022-04-20 10:16:59 +03:00
  • fad355136f chromium, code, gimp, powershell : add French translation (#8037) Gatien 2022-04-20 01:41:19 +02:00
  • 91d102652b caja: add page (#8007) Emily Grace Seville 2022-04-19 17:14:41 +10:00
  • d7c2be335c mate-screenshot: add page (#8021) Emily Grace Seville 2022-04-19 17:09:42 +10:00
  • 4bdc065c92 Add pinta page (#8024) Emily Grace Seville 2022-04-19 17:03:08 +10:00
  • 22d115ffec Add mate-dictionary page (#8030) Emily Grace Seville 2022-04-19 16:45:27 +10:00
  • 5980dfdf29 .gitignore: add .idea to ignored files (#8033) Choi Young-jin 2022-04-18 20:56:35 +09:00
  • e69ebee138 gist, git-abort, openssl: add Ukrainian translation (#8032) Ilya Pantsyr 2022-04-17 22:08:40 +03:00
  • 8627e23964 ledctl: add page (#7776) Danesh Manoharan 2022-04-16 18:14:57 -05:00
  • fe3a6efb95 git-merge: add Ukrainian translation (#8028) Ilya Pantsyr 2022-04-17 00:34:00 +03:00
  • 609ad26326 cut: add Russian translation (#7940) Emily Grace Seville 2022-04-17 00:22:36 +10:00
  • dfd1ada45e cp: add Ukrainian translation (#8026) Ilya Pantsyr 2022-04-16 13:59:04 +03:00
  • a0d21d1c80 engrampa: add suggestion CleanMachine1 2022-04-16 12:08:50 +02:00
  • 30f95850c0 engrampa: add page (#8015) Emily Grace Seville 2022-04-16 17:11:22 +10:00
  • a7de366916 mate-calc-cmd: add page (#8014) Emily Grace Seville 2022-04-16 13:27:50 +10:00
  • b1e210a98f mate-search-tool: add page (#8016) Emily Grace Seville 2022-04-16 12:50:28 +10:00
  • a7724b7c2f .editorconfig: set trim_trailing_whitespace to false (#7958) Emily Grace Seville 2022-04-16 12:48:17 +10:00
  • 34fa690979 code: refresh page (#8017) Emily Grace Seville 2022-04-16 12:42:11 +10:00
  • d6513baeee mtr: add --aslookup example (#8001) Julia Evans 2022-04-15 22:35:32 -04:00
  • b1c9bce207 openssl s_client: add '-servername' (#8002) Julia Evans 2022-04-15 08:18:42 -04:00
  • 870c730191 duc: add page (#7869) Gabri Botha 2022-04-15 11:48:20 +02:00
  • 567b5a882a nu: refresh page (#8005) Emily Grace Seville 2022-04-15 13:44:09 +10:00
  • 0b6c476d27 shortcuts: add page (#7935) Victoria Kruczek 2022-04-15 03:11:42 +02:00
  • 9c115e834f fix: Correct a translation error (#8004) Xie Yang 2022-04-14 17:07:09 +08:00
  • 3ce3531cb0 faillock: add page (#7971) Martin Matous 2022-04-14 02:49:07 +02:00
  • f0dacdbd20 jq: update page (#7945) Emily Grace Seville 2022-04-13 11:45:18 +10:00
  • 3f7ce811f7 zoxide: add --interactive to remove example (#7977) Steve-V 2022-04-12 07:10:35 -04:00
  • 14a5e6b020 2to3, 7za, 7zr, [, [[, aapt: add Korean translate (#7970) Choi Young-jin 2022-04-11 08:09:59 +09:00
  • 119c84205e ip-neighbour.md : title : the command is "ip" and not "ip-neighbour" (#7973) Raizo62 2022-04-10 14:47:05 +02:00
  • 1a2846cf85 tmux: add Korean translation (#7959) Choi Young-jin 2022-04-08 01:31:29 +09:00
  • 97c6028809 color, dir, nautilus, touch, wal: add Catalan translation (#7965) Seifer23 2022-04-07 18:29:59 +02:00
  • dc7bd73653 nc, telnet, vim: add Korean translation (#7960) Choi Young-jin 2022-04-07 20:49:13 +09:00
  • 95024e8451 bq: add page (#7962) Dina Basumatary 2022-04-07 15:53:01 +05:30
  • b9fcf6a81c alternatives: add alias page (#7967) Garrett Mills 2022-04-07 05:20:33 -05:00
  • 9c3619928b tar: fix spelling in German translation (#7964) Nicolai Weitkemper 2022-04-06 22:45:36 +02:00
  • 7f30b7211e mh_copyright: add page (#7910) Axel Navarro 2022-04-06 04:05:16 -03:00
  • 6c1370e1e9 pwd with long options (#7955) Emily Grace Seville 2022-04-05 00:22:20 +10:00
  • 213dab9463 Better grammar in pabcnetcclear (#7934) Emily Grace Seville 2022-04-04 22:46:28 +10:00
  • 2bf7c9a670 you-get: add page (#7948) hellojukay 2022-04-03 23:25:08 +08:00
  • f2ce86befd pwd: fix flags (#7953) CleanMachine1 2022-04-03 15:21:35 +00:00
  • 48c442da5d debtap: add page (#7947) Chenfa Zheng 2022-04-03 20:56:06 +08:00
  • 78c684a6f6 speedcrunch: add page (#7936) CleanMachine1 2022-04-02 22:24:53 +00:00
  • 487d901904 unshare: add page (#7920) Seth Falco 2022-04-03 00:19:56 +02:00
  • 59f031bb0c dotnet-tool: add page (#7769) Axel Navarro 2022-04-02 19:16:27 -03:00
  • f3f11bd539 7z, cmatrix, ls, youtube-dl: add Catalan translation (#7946) Seifer23 2022-04-03 00:14:05 +02:00
  • a456da2822 gt: add page (#7926) Paul Somers 2022-03-30 14:45:02 +01:00
  • 8f25ac9cf5 fix CI issues (#7937) CleanMachine1 2022-03-29 01:32:52 +00:00
  • b698969354 b2sum, md5sum, sha*sum: add --ignore-missing example (#7929) dotnetCarpenter 2022-03-28 16:21:41 +02:00
  • 0bc72f5496 sdef, xml2man: add page (#7927) pixel 2022-03-27 23:49:38 +02:00
  • 9ac1ffd5ca CLIENT-SPECIFICATION: Add entry to unreleased changelog (#7806) Matthew Peveler 2022-03-26 23:04:21 -07:00
  • 27ff55fc2e *: normalize colons (#7913) Seth Falco 2022-03-27 07:25:15 +02:00
  • f63fedd585 gimp: add Russian translation (#7907) Emily Grace Seville 2022-03-27 15:20:50 +10:00
  • df1531c488 krita: add Russian translation (#7906) Emily Grace Seville 2022-03-27 15:19:16 +10:00
  • 8d3613e0a0 mcs: add Russian translation (#7908) Emily Grace Seville 2022-03-27 15:17:31 +10:00
  • f8d78df90d package-lock.json: bump minimist from 1.2.5 to 1.2.6 (#7928) dependabot[bot] 2022-03-26 18:14:21 -03:00
  • cd107da48b mh_metric: add page (#7912) Axel Navarro 2022-03-25 17:27:18 -03:00
  • 2a9bf986cb nordvpn: add autoconnect and update country connect examples (#7924) Kirill Lappo 2022-03-24 10:32:45 +03:00
  • da24d7dbe0 gnome-screenshot: add page (#7916) Seth Falco 2022-03-23 14:14:10 +01:00